sensor_id;sensor_type;location;lat;lon;timestamp;temperature;humidity
52044;DHT22;38053;53.100;6.078;2024-03-22T00:02:02;9.50;99.90
52044;DHT22;38053;53.100;6.078;2024-03-22T00:04:28;9.50;99.90
52044;DHT22;38053;53.100;6.078;2024-03-22T00:06:54;9.60;99.90
52044;DHT22;38053;53.100;6.078;2024-03-22T00:09:20;9.50;99.90
52044;DHT22;38053;53.100;6.078;2024-03-22T00:11:54;9.60;99.90
52044;DHT22;38053;53.100;6.078;2024-03-22T00:14:20;9.60;99.90
52044;DHT22;38053;53.100;6.078;2024-03-22T00:16:45;9.70;99.90
52044;DHT22;38053;53.100;6.078;2024-03-22T00:19:11;9.70;99.90
52044;DHT22;38053;53.100;6.078;2024-03-22T00:21:37;9.70;99.90
52044;DHT22;38053;53.100;6.078;2024-03-22T00:24:02;9.70;99.90
52044;DHT22;38053;53.100;6.078;2024-03-22T00:26:28;9.80;99.90
52044;DHT22;38053;53.100;6.078;2024-03-22T00:28:54;9.80;99.90
52044;DHT22;38053;53.100;6.078;2024-03-22T00:31:20;9.80;99.90
52044;DHT22;38053;53.100;6.078;2024-03-22T00:33:45;9.80;99.90
52044;DHT22;38053;53.100;6.078;2024-03-22T00:36:11;9.80;99.90
52044;DHT22;38053;53.100;6.078;2024-03-22T00:38:37;9.90;99.90
52044;DHT22;38053;53.100;6.078;2024-03-22T00:41:03;9.90;99.90
52044;DHT22;38053;53.100;6.078;2024-03-22T00:43:28;9.90;99.90
52044;DHT22;38053;53.100;6.078;2024-03-22T00:45:54;9.90;99.90
52044;DHT22;38053;53.100;6.078;2024-03-22T00:48:20;9.90;99.90
52044;DHT22;38053;53.100;6.078;2024-03-22T00:50:45;9.90;99.90
52044;DHT22;38053;53.100;6.078;2024-03-22T00:53:11;9.90;99.90
52044;DHT22;38053;53.100;6.078;2024-03-22T00:55:38;9.90;99.90
52044;DHT22;38053;53.100;6.078;2024-03-22T00:58:03;9.90;99.90
52044;DHT22;38053;53.100;6.078;2024-03-22T01:00:29;9.90;99.90
52044;DHT22;38053;53.100;6.078;2024-03-22T01:02:55;9.90;99.90
52044;DHT22;38053;53.100;6.078;2024-03-22T01:05:23;9.90;99.90
52044;DHT22;38053;53.100;6.078;2024-03-22T01:07:49;10.00;99.90
52044;DHT22;38053;53.100;6.078;2024-03-22T01:10:15;10.00;99.90
52044;DHT22;38053;53.100;6.078;2024-03-22T01:12:41;10.00;99.90
52044;DHT22;38053;53.100;6.078;2024-03-22T01:15:07;10.00;99.90
52044;DHT22;38053;53.100;6.078;2024-03-22T01:17:33;10.00;99.90
52044;DHT22;38053;53.100;6.078;2024-03-22T01:19:59;10.00;99.90
52044;DHT22;38053;53.100;6.078;2024-03-22T01:22:28;10.00;99.90
52044;DHT22;38053;53.100;6.078;2024-03-22T01:24:54;10.00;99.90
52044;DHT22;38053;53.100;6.078;2024-03-22T01:27:20;10.00;99.90
52044;DHT22;38053;53.100;6.078;2024-03-22T01:29:46;10.00;99.90
52044;DHT22;38053;53.100;6.078;2024-03-22T01:32:12;10.10;99.90
52044;DHT22;38053;53.100;6.078;2024-03-22T01:34:38;10.10;99.90
52044;DHT22;38053;53.100;6.078;2024-03-22T01:37:04;10.10;99.90
52044;DHT22;38053;53.100;6.078;2024-03-22T01:39:30;10.10;99.90
52044;DHT22;38053;53.100;6.078;2024-03-22T01:41:56;10.10;99.90
52044;DHT22;38053;53.100;6.078;2024-03-22T01:44:28;10.10;99.90
52044;DHT22;38053;53.100;6.078;2024-03-22T01:46:54;10.10;99.90
52044;DHT22;38053;53.100;6.078;2024-03-22T01:49:20;10.10;99.90
52044;DHT22;38053;53.100;6.078;2024-03-22T01:51:46;10.20;99.90
52044;DHT22;38053;53.100;6.078;2024-03-22T01:54:12;10.20;99.90
52044;DHT22;38053;53.100;6.078;2024-03-22T01:56:40;10.20;99.90
52044;DHT22;38053;53.100;6.078;2024-03-22T01:59:06;10.20;99.90
52044;DHT22;38053;53.100;6.078;2024-03-22T02:01:32;10.10;99.90
52044;DHT22;38053;53.100;6.078;2024-03-22T02:03:58;10.20;99.90
52044;DHT22;38053;53.100;6.078;2024-03-22T02:06:24;10.20;99.90
52044;DHT22;38053;53.100;6.078;2024-03-22T02:08:50;10.20;99.90
52044;DHT22;38053;53.100;6.078;2024-03-22T02:11:16;10.20;99.90
52044;DHT22;38053;53.100;6.078;2024-03-22T02:13:41;10.20;99.90
52044;DHT22;38053;53.100;6.078;2024-03-22T02:16:08;10.20;99.90
52044;DHT22;38053;53.100;6.078;2024-03-22T02:18:34;10.20;99.90
52044;DHT22;38053;53.100;6.078;2024-03-22T02:21:00;10.10;99.90
52044;DHT22;38053;53.100;6.078;2024-03-22T02:23:36;10.10;99.90
52044;DHT22;38053;53.100;6.078;2024-03-22T02:26:02;10.10;99.90
52044;DHT22;38053;53.100;6.078;2024-03-22T02:28:28;10.10;99.90
52044;DHT22;38053;53.100;6.078;2024-03-22T02:30:54;10.10;99.90
52044;DHT22;38053;53.100;6.078;2024-03-22T02:33:20;10.00;99.90
52044;DHT22;38053;53.100;6.078;2024-03-22T02:35:49;10.00;99.90
52044;DHT22;38053;53.100;6.078;2024-03-22T02:38:18;10.00;99.90
52044;DHT22;38053;53.100;6.078;2024-03-22T02:40:49;10.10;99.90
52044;DHT22;38053;53.100;6.078;2024-03-22T02:43:14;10.10;99.90
52044;DHT22;38053;53.100;6.078;2024-03-22T02:45:40;10.10;99.90
52044;DHT22;38053;53.100;6.078;2024-03-22T02:48:06;10.10;99.90
52044;DHT22;38053;53.100;6.078;2024-03-22T02:50:35;10.00;99.90
52044;DHT22;38053;53.100;6.078;2024-03-22T02:53:02;10.00;99.90
52044;DHT22;38053;53.100;6.078;2024-03-22T02:55:28;10.00;99.90
52044;DHT22;38053;53.100;6.078;2024-03-22T02:57:57;10.00;99.90
52044;DHT22;38053;53.100;6.078;2024-03-22T03:00:25;10.00;99.90
52044;DHT22;38053;53.100;6.078;2024-03-22T03:02:51;10.00;99.90
52044;DHT22;38053;53.100;6.078;2024-03-22T03:05:20;10.00;99.90
52044;DHT22;38053;53.100;6.078;2024-03-22T03:07:48;10.00;99.90
52044;DHT22;38053;53.100;6.078;2024-03-22T03:10:13;10.00;99.90
52044;DHT22;38053;53.100;6.078;2024-03-22T03:12:39;10.00;99.90
52044;DHT22;38053;53.100;6.078;2024-03-22T03:15:05;9.90;99.90
52044;DHT22;38053;53.100;6.078;2024-03-22T03:17:31;9.90;99.90
52044;DHT22;38053;53.100;6.078;2024-03-22T03:19:57;10.00;99.90
52044;DHT22;38053;53.100;6.078;2024-03-22T03:22:22;10.00;99.90
52044;DHT22;38053;53.100;6.078;2024-03-22T03:24:48;9.90;99.90
52044;DHT22;38053;53.100;6.078;2024-03-22T03:27:13;10.00;99.90
52044;DHT22;38053;53.100;6.078;2024-03-22T03:29:39;9.90;99.90
52044;DHT22;38053;53.100;6.078;2024-03-22T03:32:05;10.00;99.90
52044;DHT22;38053;53.100;6.078;2024-03-22T03:34:30;10.00;99.90
52044;DHT22;38053;53.100;6.078;2024-03-22T03:36:56;10.00;99.90
52044;DHT22;38053;53.100;6.078;2024-03-22T03:39:26;10.00;99.90
52044;DHT22;38053;53.100;6.078;2024-03-22T03:41:51;10.00;99.90
52044;DHT22;38053;53.100;6.078;2024-03-22T03:44:17;10.00;99.90
52044;DHT22;38053;53.100;6.078;2024-03-22T03:46:42;10.00;99.90
52044;DHT22;38053;53.100;6.078;2024-03-22T03:49:08;10.00;99.90
52044;DHT22;38053;53.100;6.078;2024-03-22T03:51:34;10.00;99.90
52044;DHT22;38053;53.100;6.078;2024-03-22T03:53:59;10.00;99.90
52044;DHT22;38053;53.100;6.078;2024-03-22T03:56:25;10.00;99.90
52044;DHT22;38053;53.100;6.078;2024-03-22T03:58:51;10.00;99.90
52044;DHT22;38053;53.100;6.078;2024-03-22T04:01:24;10.00;99.90
52044;DHT22;38053;53.100;6.078;2024-03-22T04:03:49;10.00;99.90
52044;DHT22;38053;53.100;6.078;2024-03-22T04:06:15;10.00;99.90
52044;DHT22;38053;53.100;6.078;2024-03-22T04:08:42;10.00;99.90
52044;DHT22;38053;53.100;6.078;2024-03-22T04:11:07;10.00;99.90
52044;DHT22;38053;53.100;6.078;2024-03-22T04:13:38;10.10;99.90
52044;DHT22;38053;53.100;6.078;2024-03-22T04:16:04;10.00;99.90
52044;DHT22;38053;53.100;6.078;2024-03-22T04:18:30;10.00;99.90
52044;DHT22;38053;53.100;6.078;2024-03-22T04:20:57;10.00;99.90
52044;DHT22;38053;53.100;6.078;2024-03-22T04:23:23;10.00;99.90
52044;DHT22;38053;53.100;6.078;2024-03-22T04:25:57;10.00;99.90
52044;DHT22;38053;53.100;6.078;2024-03-22T04:28:24;10.00;99.90
52044;DHT22;38053;53.100;6.078;2024-03-22T04:30:58;10.00;99.90
52044;DHT22;38053;53.100;6.078;2024-03-22T04:33:24;10.00;99.90
52044;DHT22;38053;53.100;6.078;2024-03-22T04:35:50;10.00;99.90
52044;DHT22;38053;53.100;6.078;2024-03-22T04:38:16;10.00;99.90
52044;DHT22;38053;53.100;6.078;2024-03-22T04:40:41;10.00;99.90
52044;DHT22;38053;53.100;6.078;2024-03-22T04:43:10;10.00;99.90
52044;DHT22;38053;53.100;6.078;2024-03-22T04:45:35;10.00;99.90
52044;DHT22;38053;53.100;6.078;2024-03-22T04:48:03;10.00;99.90
52044;DHT22;38053;53.100;6.078;2024-03-22T04:50:30;10.00;99.90
52044;DHT22;38053;53.100;6.078;2024-03-22T04:52:55;10.00;99.90
52044;DHT22;38053;53.100;6.078;2024-03-22T04:55:21;10.00;99.90
52044;DHT22;38053;53.100;6.078;2024-03-22T04:57:47;10.00;99.90
52044;DHT22;38053;53.100;6.078;2024-03-22T05:00:13;10.00;99.90
52044;DHT22;38053;53.100;6.078;2024-03-22T05:02:38;10.00;99.90
52044;DHT22;38053;53.100;6.078;2024-03-22T05:05:06;10.00;99.90
52044;DHT22;38053;53.100;6.078;2024-03-22T05:07:33;10.00;99.90
52044;DHT22;38053;53.100;6.078;2024-03-22T05:09:59;10.00;99.90
52044;DHT22;38053;53.100;6.078;2024-03-22T05:12:26;10.00;99.90
52044;DHT22;38053;53.100;6.078;2024-03-22T05:14:51;10.00;99.90
52044;DHT22;38053;53.100;6.078;2024-03-22T05:17:20;10.00;99.90
52044;DHT22;38053;53.100;6.078;2024-03-22T05:19:46;10.00;99.90
52044;DHT22;38053;53.100;6.078;2024-03-22T05:22:12;9.90;99.90
52044;DHT22;38053;53.100;6.078;2024-03-22T05:24:39;9.90;99.90
52044;DHT22;38053;53.100;6.078;2024-03-22T05:27:05;9.80;99.90
52044;DHT22;38053;53.100;6.078;2024-03-22T05:29:36;9.80;99.90
52044;DHT22;38053;53.100;6.078;2024-03-22T05:32:15;9.70;99.90
52044;DHT22;38053;53.100;6.078;2024-03-22T05:34:42;9.70;99.90
52044;DHT22;38053;53.100;6.078;2024-03-22T05:37:10;9.70;99.90
52044;DHT22;38053;53.100;6.078;2024-03-22T05:39:41;9.70;99.90
52044;DHT22;38053;53.100;6.078;2024-03-22T05:42:07;9.60;99.90
52044;DHT22;38053;53.100;6.078;2024-03-22T05:44:39;9.60;99.90
52044;DHT22;38053;53.100;6.078;2024-03-22T05:47:12;9.60;99.90
52044;DHT22;38053;53.100;6.078;2024-03-22T05:49:38;9.60;99.90
52044;DHT22;38053;53.100;6.078;2024-03-22T05:52:07;9.60;99.90
52044;DHT22;38053;53.100;6.078;2024-03-22T05:54:33;9.60;99.90
52044;DHT22;38053;53.100;6.078;2024-03-22T05:56:59;9.60;99.90
52044;DHT22;38053;53.100;6.078;2024-03-22T05:59:29;9.60;99.90
52044;DHT22;38053;53.100;6.078;2024-03-22T06:01:55;9.60;99.90
52044;DHT22;38053;53.100;6.078;2024-03-22T06:04:24;9.60;99.90
52044;DHT22;38053;53.100;6.078;2024-03-22T06:06:52;9.60;99.90
52044;DHT22;38053;53.100;6.078;2024-03-22T06:21:51;9.60;99.90
52044;DHT22;38053;53.100;6.078;2024-03-22T06:24:20;9.50;99.90
52044;DHT22;38053;53.100;6.078;2024-03-22T06:27:01;9.60;99.90
52044;DHT22;38053;53.100;6.078;2024-03-22T06:29:31;9.60;99.90
52044;DHT22;38053;53.100;6.078;2024-03-22T06:31:57;9.60;99.90
52044;DHT22;38053;53.100;6.078;2024-03-22T06:38:03;9.60;99.90
52044;DHT22;38053;53.100;6.078;2024-03-22T06:40:41;9.60;99.90
52044;DHT22;38053;53.100;6.078;2024-03-22T06:43:11;9.60;99.90
52044;DHT22;38053;53.100;6.078;2024-03-22T06:46:07;9.60;99.90
52044;DHT22;38053;53.100;6.078;2024-03-22T06:48:33;9.60;99.90
52044;DHT22;38053;53.100;6.078;2024-03-22T06:50:59;9.60;99.90
52044;DHT22;38053;53.100;6.078;2024-03-22T07:00:38;9.60;99.90
52044;DHT22;38053;53.100;6.078;2024-03-22T07:03:09;9.60;99.90
52044;DHT22;38053;53.100;6.078;2024-03-22T07:05:37;9.60;99.90
52044;DHT22;38053;53.100;6.078;2024-03-22T07:08:07;9.60;99.90
52044;DHT22;38053;53.100;6.078;2024-03-22T07:10:33;9.60;99.90
52044;DHT22;38053;53.100;6.078;2024-03-22T07:12:59;9.60;99.90
52044;DHT22;38053;53.100;6.078;2024-03-22T07:15:25;9.60;99.90
52044;DHT22;38053;53.100;6.078;2024-03-22T07:18:00;9.60;99.90
52044;DHT22;38053;53.100;6.078;2024-03-22T07:20:27;9.60;99.90
52044;DHT22;38053;53.100;6.078;2024-03-22T07:22:52;9.60;99.90
52044;DHT22;38053;53.100;6.078;2024-03-22T07:29:17;9.60;99.90
52044;DHT22;38053;53.100;6.078;2024-03-22T07:39:08;9.60;99.90
52044;DHT22;38053;53.100;6.078;2024-03-22T07:45:19;9.60;99.90
52044;DHT22;38053;53.100;6.078;2024-03-22T07:47:52;9.60;99.90
52044;DHT22;38053;53.100;6.078;2024-03-22T07:50:17;9.60;99.90
52044;DHT22;38053;53.100;6.078;2024-03-22T07:52:55;9.70;99.90
52044;DHT22;38053;53.100;6.078;2024-03-22T07:55:24;9.60;99.90
52044;DHT22;38053;53.100;6.078;2024-03-22T07:57:54;9.70;99.90
52044;DHT22;38053;53.100;6.078;2024-03-22T08:08:12;9.60;99.90
52044;DHT22;38053;53.100;6.078;2024-03-22T08:14:18;9.60;99.90
52044;DHT22;38053;53.100;6.078;2024-03-22T08:16:44;9.60;99.90
52044;DHT22;38053;53.100;6.078;2024-03-22T08:23:00;9.60;99.90
52044;DHT22;38053;53.100;6.078;2024-03-22T08:25:31;9.60;99.90
52044;DHT22;38053;53.100;6.078;2024-03-22T08:28:10;9.60;99.90
52044;DHT22;38053;53.100;6.078;2024-03-22T08:30:54;9.60;99.90
52044;DHT22;38053;53.100;6.078;2024-03-22T08:33:20;9.60;99.90
52044;DHT22;38053;53.100;6.078;2024-03-22T08:35:51;9.60;99.90
52044;DHT22;38053;53.100;6.078;2024-03-22T08:38:20;9.60;99.90
52044;DHT22;38053;53.100;6.078;2024-03-22T08:41:03;9.60;99.90
52044;DHT22;38053;53.100;6.078;2024-03-22T08:47:22;9.60;99.90
52044;DHT22;38053;53.100;6.078;2024-03-22T08:53:00;9.60;99.90
52044;DHT22;38053;53.100;6.078;2024-03-22T08:58:26;9.60;99.90
52044;DHT22;38053;53.100;6.078;2024-03-22T09:01:12;9.60;99.90
52044;DHT22;38053;53.100;6.078;2024-03-22T09:03:44;9.60;99.90
52044;DHT22;38053;53.100;6.078;2024-03-22T09:06:20;9.60;99.90
52044;DHT22;38053;53.100;6.078;2024-03-22T09:08:47;9.60;99.90
52044;DHT22;38053;53.100;6.078;2024-03-22T09:11:12;9.60;99.90
52044;DHT22;38053;53.100;6.078;2024-03-22T09:13:38;9.60;99.90
52044;DHT22;38053;53.100;6.078;2024-03-22T09:36:23;9.60;99.90
52044;DHT22;38053;53.100;6.078;2024-03-22T09:39:11;9.60;99.90
52044;DHT22;38053;53.100;6.078;2024-03-22T11:50:55;10.10;99.90
52044;DHT22;38053;53.100;6.078;2024-03-22T11:53:21;10.10;99.90
52044;DHT22;38053;53.100;6.078;2024-03-22T11:55:57;10.00;99.90
52044;DHT22;38053;53.100;6.078;2024-03-22T12:06:10;10.00;99.90
52044;DHT22;38053;53.100;6.078;2024-03-22T12:08:40;10.10;99.90
52044;DHT22;38053;53.100;6.078;2024-03-22T12:11:10;10.20;99.90
52044;DHT22;38053;53.100;6.078;2024-03-22T12:14:01;10.20;99.90
52044;DHT22;38053;53.100;6.078;2024-03-22T12:16:29;10.20;99.90
52044;DHT22;38053;53.100;6.078;2024-03-22T12:18:59;10.20;99.90
52044;DHT22;38053;53.100;6.078;2024-03-22T12:34:22;10.30;99.90
52044;DHT22;38053;53.100;6.078;2024-03-22T12:37:00;10.30;99.90
52044;DHT22;38053;53.100;6.078;2024-03-22T12:39:26;10.20;99.90
52044;DHT22;38053;53.100;6.078;2024-03-22T12:41:52;10.10;99.90
52044;DHT22;38053;53.100;6.078;2024-03-22T12:44:24;10.10;99.90
52044;DHT22;38053;53.100;6.078;2024-03-22T12:46:56;10.10;99.90
52044;DHT22;38053;53.100;6.078;2024-03-22T12:49:21;10.10;99.90
52044;DHT22;38053;53.100;6.078;2024-03-22T12:52:38;10.20;99.90
52044;DHT22;38053;53.100;6.078;2024-03-22T12:55:03;10.30;99.90
52044;DHT22;38053;53.100;6.078;2024-03-22T12:57:29;10.20;99.90
52044;DHT22;38053;53.100;6.078;2024-03-22T13:00:06;10.20;99.90
52044;DHT22;38053;53.100;6.078;2024-03-22T13:02:39;10.20;99.90
52044;DHT22;38053;53.100;6.078;2024-03-22T13:05:06;10.20;99.90
52044;DHT22;38053;53.100;6.078;2024-03-22T13:07:35;10.10;99.90
52044;DHT22;38053;53.100;6.078;2024-03-22T13:10:01;10.10;99.90
52044;DHT22;38053;53.100;6.078;2024-03-22T13:12:51;10.10;99.90
52044;DHT22;38053;53.100;6.078;2024-03-22T13:15:35;10.10;99.90
52044;DHT22;38053;53.100;6.078;2024-03-22T13:18:21;10.10;99.90
52044;DHT22;38053;53.100;6.078;2024-03-22T13:20:50;10.10;99.90
52044;DHT22;38053;53.100;6.078;2024-03-22T13:23:19;10.10;99.90
52044;DHT22;38053;53.100;6.078;2024-03-22T13:25:48;10.10;99.90
52044;DHT22;38053;53.100;6.078;2024-03-22T13:28:21;10.10;99.90
52044;DHT22;38053;53.100;6.078;2024-03-22T13:30:48;10.10;99.90
52044;DHT22;38053;53.100;6.078;2024-03-22T13:36:35;10.00;99.90
52044;DHT22;38053;53.100;6.078;2024-03-22T13:39:03;9.90;99.90
52044;DHT22;38053;53.100;6.078;2024-03-22T13:41:37;9.90;99.90
52044;DHT22;38053;53.100;6.078;2024-03-22T13:44:04;9.80;99.90
52044;DHT22;38053;53.100;6.078;2024-03-22T13:46:34;9.70;99.90
52044;DHT22;38053;53.100;6.078;2024-03-22T13:49:33;9.60;99.90
52044;DHT22;38053;53.100;6.078;2024-03-22T13:51:59;9.60;99.90
52044;DHT22;38053;53.100;6.078;2024-03-22T13:54:50;9.50;99.90
52044;DHT22;38053;53.100;6.078;2024-03-22T13:57:19;9.50;99.90
52044;DHT22;38053;53.100;6.078;2024-03-22T14:00:09;9.60;99.90
52044;DHT22;38053;53.100;6.078;2024-03-22T14:02:48;9.60;99.90
52044;DHT22;38053;53.100;6.078;2024-03-22T14:05:21;9.70;99.90
52044;DHT22;38053;53.100;6.078;2024-03-22T14:07:50;9.70;99.90
52044;DHT22;38053;53.100;6.078;2024-03-22T14:10:16;9.70;99.90
52044;DHT22;38053;53.100;6.078;2024-03-22T14:12:51;9.70;99.90
52044;DHT22;38053;53.100;6.078;2024-03-22T14:16:12;9.70;99.90
52044;DHT22;38053;53.100;6.078;2024-03-22T14:18:40;9.80;99.90
52044;DHT22;38053;53.100;6.078;2024-03-22T14:21:06;9.80;99.90
52044;DHT22;38053;53.100;6.078;2024-03-22T14:23:32;9.90;99.90
52044;DHT22;38053;53.100;6.078;2024-03-22T14:26:00;9.90;99.90
52044;DHT22;38053;53.100;6.078;2024-03-22T14:28:26;9.90;99.90
52044;DHT22;38053;53.100;6.078;2024-03-22T14:30:51;9.90;99.90
52044;DHT22;38053;53.100;6.078;2024-03-22T14:33:20;9.90;99.90
52044;DHT22;38053;53.100;6.078;2024-03-22T14:35:49;9.90;99.90
52044;DHT22;38053;53.100;6.078;2024-03-22T14:38:19;9.90;99.90
52044;DHT22;38053;53.100;6.078;2024-03-22T14:40:45;9.90;99.90
52044;DHT22;38053;53.100;6.078;2024-03-22T14:43:11;9.80;99.90
52044;DHT22;38053;53.100;6.078;2024-03-22T14:56:02;9.80;99.90
52044;DHT22;38053;53.100;6.078;2024-03-22T14:58:39;9.80;99.90
52044;DHT22;38053;53.100;6.078;2024-03-22T15:01:05;9.80;99.90
52044;DHT22;38053;53.100;6.078;2024-03-22T15:03:32;9.80;99.90
52044;DHT22;38053;53.100;6.078;2024-03-22T15:06:06;9.80;99.90
52044;DHT22;38053;53.100;6.078;2024-03-22T15:08:32;9.70;99.90
52044;DHT22;38053;53.100;6.078;2024-03-22T15:14:46;9.70;99.90
52044;DHT22;38053;53.100;6.078;2024-03-22T15:21:04;9.70;99.90
52044;DHT22;38053;53.100;6.078;2024-03-22T15:23:30;9.80;99.90
52044;DHT22;38053;53.100;6.078;2024-03-22T15:25:58;9.90;99.90
52044;DHT22;38053;53.100;6.078;2024-03-22T15:28:24;9.90;99.90
52044;DHT22;38053;53.100;6.078;2024-03-22T15:30:49;9.90;99.90
52044;DHT22;38053;53.100;6.078;2024-03-22T15:33:18;9.80;99.90
52044;DHT22;38053;53.100;6.078;2024-03-22T15:35:44;9.80;99.90
52044;DHT22;38053;53.100;6.078;2024-03-22T15:38:17;9.80;99.90
52044;DHT22;38053;53.100;6.078;2024-03-22T15:40:48;9.80;99.90
52044;DHT22;38053;53.100;6.078;2024-03-22T15:43:21;9.80;99.90
52044;DHT22;38053;53.100;6.078;2024-03-22T15:45:47;9.80;99.90
52044;DHT22;38053;53.100;6.078;2024-03-22T15:48:13;9.80;99.90
52044;DHT22;38053;53.100;6.078;2024-03-22T15:50:51;9.80;99.90
52044;DHT22;38053;53.100;6.078;2024-03-22T15:53:19;9.70;99.90
52044;DHT22;38053;53.100;6.078;2024-03-22T15:55:45;9.70;99.90
52044;DHT22;38053;53.100;6.078;2024-03-22T15:58:11;9.70;99.90
52044;DHT22;38053;53.100;6.078;2024-03-22T16:00:36;9.70;99.90
52044;DHT22;38053;53.100;6.078;2024-03-22T16:03:02;9.60;99.90
52044;DHT22;38053;53.100;6.078;2024-03-22T16:05:28;9.60;99.90
52044;DHT22;38053;53.100;6.078;2024-03-22T16:07:53;9.50;99.90
52044;DHT22;38053;53.100;6.078;2024-03-22T16:10:19;9.50;99.90
52044;DHT22;38053;53.100;6.078;2024-03-22T16:12:45;9.50;99.90
52044;DHT22;38053;53.100;6.078;2024-03-22T16:15:23;9.50;99.90
52044;DHT22;38053;53.100;6.078;2024-03-22T16:17:48;9.50;99.90
52044;DHT22;38053;53.100;6.078;2024-03-22T16:20:14;9.50;99.90
52044;DHT22;38053;53.100;6.078;2024-03-22T16:22:40;9.50;99.90
52044;DHT22;38053;53.100;6.078;2024-03-22T16:25:36;9.40;99.90
52044;DHT22;38053;53.100;6.078;2024-03-22T16:28:14;9.40;99.90
52044;DHT22;38053;53.100;6.078;2024-03-22T16:30:40;9.40;99.90
52044;DHT22;38053;53.100;6.078;2024-03-22T16:33:05;9.30;99.90
52044;DHT22;38053;53.100;6.078;2024-03-22T16:35:31;9.30;99.90
52044;DHT22;38053;53.100;6.078;2024-03-22T16:38:03;9.30;99.90
52044;DHT22;38053;53.100;6.078;2024-03-22T16:40:30;9.30;99.90
52044;DHT22;38053;53.100;6.078;2024-03-22T16:42:56;9.20;99.90
52044;DHT22;38053;53.100;6.078;2024-03-22T16:45:22;9.20;99.90
52044;DHT22;38053;53.100;6.078;2024-03-22T16:47:51;9.10;99.90
52044;DHT22;38053;53.100;6.078;2024-03-22T16:50:16;9.10;99.90
52044;DHT22;38053;53.100;6.078;2024-03-22T16:52:42;9.10;99.90
52044;DHT22;38053;53.100;6.078;2024-03-22T16:55:08;9.00;99.90
52044;DHT22;38053;53.100;6.078;2024-03-22T16:58:03;9.00;99.90
52044;DHT22;38053;53.100;6.078;2024-03-22T17:00:30;9.00;99.90
52044;DHT22;38053;53.100;6.078;2024-03-22T17:02:58;9.00;99.90
52044;DHT22;38053;53.100;6.078;2024-03-22T17:05:31;8.90;99.90
52044;DHT22;38053;53.100;6.078;2024-03-22T17:07:57;8.90;99.90
52044;DHT22;38053;53.100;6.078;2024-03-22T17:10:49;8.80;99.90
52044;DHT22;38053;53.100;6.078;2024-03-22T17:13:17;8.80;99.90
52044;DHT22;38053;53.100;6.078;2024-03-22T17:15:43;8.80;99.90
52044;DHT22;38053;53.100;6.078;2024-03-22T17:18:09;8.80;99.90
52044;DHT22;38053;53.100;6.078;2024-03-22T17:20:36;8.80;99.90
52044;DHT22;38053;53.100;6.078;2024-03-22T17:23:02;8.70;99.90
52044;DHT22;38053;53.100;6.078;2024-03-22T17:25:29;8.70;99.90
52044;DHT22;38053;53.100;6.078;2024-03-22T17:27:54;8.70;99.90
52044;DHT22;38053;53.100;6.078;2024-03-22T17:30:20;8.60;99.90
52044;DHT22;38053;53.100;6.078;2024-03-22T17:32:55;8.60;99.90
52044;DHT22;38053;53.100;6.078;2024-03-22T17:35:21;8.60;99.90
52044;DHT22;38053;53.100;6.078;2024-03-22T17:37:46;8.60;99.90
52044;DHT22;38053;53.100;6.078;2024-03-22T17:40:12;8.50;99.90
52044;DHT22;38053;53.100;6.078;2024-03-22T17:42:50;8.50;99.90
52044;DHT22;38053;53.100;6.078;2024-03-22T17:45:19;8.50;99.90
52044;DHT22;38053;53.100;6.078;2024-03-22T17:47:47;8.50;99.90
52044;DHT22;38053;53.100;6.078;2024-03-22T17:50:13;8.40;99.90
52044;DHT22;38053;53.100;6.078;2024-03-22T17:52:42;8.40;99.90
52044;DHT22;38053;53.100;6.078;2024-03-22T17:55:20;8.40;99.90
52044;DHT22;38053;53.100;6.078;2024-03-22T17:57:46;8.40;99.90
52044;DHT22;38053;53.100;6.078;2024-03-22T18:00:12;8.40;99.90
52044;DHT22;38053;53.100;6.078;2024-03-22T18:02:38;8.40;99.90
52044;DHT22;38053;53.100;6.078;2024-03-22T18:05:07;8.40;99.90
52044;DHT22;38053;53.100;6.078;2024-03-22T18:07:32;8.40;99.90
52044;DHT22;38053;53.100;6.078;2024-03-22T18:09:58;8.40;99.90
52044;DHT22;38053;53.100;6.078;2024-03-22T18:12:27;8.40;99.90
52044;DHT22;38053;53.100;6.078;2024-03-22T18:14:52;8.40;99.90
52044;DHT22;38053;53.100;6.078;2024-03-22T18:19:57;8.30;99.90
52044;DHT22;38053;53.100;6.078;2024-03-22T18:22:23;8.30;99.90
52044;DHT22;38053;53.100;6.078;2024-03-22T18:24:49;8.30;99.90
52044;DHT22;38053;53.100;6.078;2024-03-22T18:27:14;8.30;99.90
52044;DHT22;38053;53.100;6.078;2024-03-22T18:29:40;8.30;99.90
52044;DHT22;38053;53.100;6.078;2024-03-22T18:32:06;8.20;99.90
52044;DHT22;38053;53.100;6.078;2024-03-22T18:34:32;8.20;99.90
52044;DHT22;38053;53.100;6.078;2024-03-22T18:36:59;8.20;99.90
52044;DHT22;38053;53.100;6.078;2024-03-22T18:39:27;8.20;99.90
52044;DHT22;38053;53.100;6.078;2024-03-22T18:41:53;8.10;99.90
52044;DHT22;38053;53.100;6.078;2024-03-22T18:44:28;8.10;99.90
52044;DHT22;38053;53.100;6.078;2024-03-22T18:47:09;8.10;99.90
52044;DHT22;38053;53.100;6.078;2024-03-22T18:49:35;8.10;99.90
52044;DHT22;38053;53.100;6.078;2024-03-22T18:52:04;8.00;99.90
52044;DHT22;38053;53.100;6.078;2024-03-22T18:54:33;8.10;99.90
52044;DHT22;38053;53.100;6.078;2024-03-22T18:57:11;8.00;99.90
52044;DHT22;38053;53.100;6.078;2024-03-22T18:59:39;8.00;99.90
52044;DHT22;38053;53.100;6.078;2024-03-22T19:02:05;8.00;99.90
52044;DHT22;38053;53.100;6.078;2024-03-22T19:04:33;7.90;99.90
52044;DHT22;38053;53.100;6.078;2024-03-22T19:07:11;7.90;99.90
52044;DHT22;38053;53.100;6.078;2024-03-22T19:09:37;7.90;99.90
52044;DHT22;38053;53.100;6.078;2024-03-22T19:12:03;7.90;99.90
52044;DHT22;38053;53.100;6.078;2024-03-22T19:14:34;7.90;99.90
52044;DHT22;38053;53.100;6.078;2024-03-22T19:17:00;7.90;99.90
52044;DHT22;38053;53.100;6.078;2024-03-22T19:19:26;7.90;99.90
52044;DHT22;38053;53.100;6.078;2024-03-22T19:21:52;7.80;99.90
52044;DHT22;38053;53.100;6.078;2024-03-22T19:24:18;7.80;99.90
52044;DHT22;38053;53.100;6.078;2024-03-22T19:26:44;7.80;99.90
52044;DHT22;38053;53.100;6.078;2024-03-22T19:29:11;7.80;99.90
52044;DHT22;38053;53.100;6.078;2024-03-22T19:31:37;7.80;99.90
52044;DHT22;38053;53.100;6.078;2024-03-22T19:34:27;7.80;99.90
52044;DHT22;38053;53.100;6.078;2024-03-22T19:36:53;7.70;99.90
52044;DHT22;38053;53.100;6.078;2024-03-22T19:39:18;7.70;99.90
52044;DHT22;38053;53.100;6.078;2024-03-22T19:41:44;7.70;99.90
52044;DHT22;38053;53.100;6.078;2024-03-22T19:44:12;7.60;99.90
52044;DHT22;38053;53.100;6.078;2024-03-22T19:46:38;7.60;99.90
52044;DHT22;38053;53.100;6.078;2024-03-22T19:49:04;7.60;99.90
52044;DHT22;38053;53.100;6.078;2024-03-22T19:51:33;7.50;99.90
52044;DHT22;38053;53.100;6.078;2024-03-22T19:53:58;7.50;99.90
52044;DHT22;38053;53.100;6.078;2024-03-22T19:56:24;7.40;99.90
52044;DHT22;38053;53.100;6.078;2024-03-22T19:58:53;7.40;99.90
52044;DHT22;38053;53.100;6.078;2024-03-22T20:01:18;7.40;99.90
52044;DHT22;38053;53.100;6.078;2024-03-22T20:03:44;7.30;99.90
52044;DHT22;38053;53.100;6.078;2024-03-22T20:06:10;7.30;99.90
52044;DHT22;38053;53.100;6.078;2024-03-22T20:08:36;7.30;99.90